sensor_id;sensor_type;location;lat;lon;timestamp;temperature;humidity
770;DHT22;368;48.698;9.116;2022-10-23T00:00:17;10.00;99.90
770;DHT22;368;48.698;9.116;2022-10-23T00:02:44;9.90;99.90
770;DHT22;368;48.698;9.116;2022-10-23T00:05:19;9.70;99.90
770;DHT22;368;48.698;9.116;2022-10-23T00:07:49;9.90;99.90
770;DHT22;368;48.698;9.116;2022-10-23T00:10:18;10.00;99.90
770;DHT22;368;48.698;9.116;2022-10-23T00:12:46;10.00;99.90
770;DHT22;368;48.698;9.116;2022-10-23T00:15:14;9.80;99.90
770;DHT22;368;48.698;9.116;2022-10-23T00:17:42;9.70;99.90
770;DHT22;368;48.698;9.116;2022-10-23T00:20:10;9.80;99.90
770;DHT22;368;48.698;9.116;2022-10-23T00:22:37;9.80;99.90
770;DHT22;368;48.698;9.116;2022-10-23T00:25:05;9.70;99.90
770;DHT22;368;48.698;9.116;2022-10-23T00:27:33;9.70;99.90
770;DHT22;368;48.698;9.116;2022-10-23T00:30:01;9.80;99.90
770;DHT22;368;48.698;9.116;2022-10-23T00:32:28;9.70;99.90
770;DHT22;368;48.698;9.116;2022-10-23T00:34:54;9.70;99.90
770;DHT22;368;48.698;9.116;2022-10-23T00:37:21;9.50;99.90
770;DHT22;368;48.698;9.116;2022-10-23T00:39:48;9.40;99.90
770;DHT22;368;48.698;9.116;2022-10-23T00:42:17;9.50;99.90
770;DHT22;368;48.698;9.116;2022-10-23T00:47:53;9.70;99.90
770;DHT22;368;48.698;9.116;2022-10-23T00:50:23;9.80;99.90
770;DHT22;368;48.698;9.116;2022-10-23T00:52:52;10.00;99.90
770;DHT22;368;48.698;9.116;2022-10-23T00:55:20;9.60;99.90
770;DHT22;368;48.698;9.116;2022-10-23T00:57:51;9.50;99.90
770;DHT22;368;48.698;9.116;2022-10-23T01:00:20;9.30;99.90
770;DHT22;368;48.698;9.116;2022-10-23T01:02:48;9.60;99.90
770;DHT22;368;48.698;9.116;2022-10-23T01:05:16;10.00;99.90
770;DHT22;368;48.698;9.116;2022-10-23T01:07:48;10.10;99.90
770;DHT22;368;48.698;9.116;2022-10-23T01:10:22;10.00;99.90
770;DHT22;368;48.698;9.116;2022-10-23T01:12:56;9.70;99.90
770;DHT22;368;48.698;9.116;2022-10-23T01:15:30;9.80;99.90
770;DHT22;368;48.698;9.116;2022-10-23T01:18:03;9.70;99.90
770;DHT22;368;48.698;9.116;2022-10-23T01:20:41;10.10;99.90
770;DHT22;368;48.698;9.116;2022-10-23T01:26:17;9.80;99.90
770;DHT22;368;48.698;9.116;2022-10-23T01:28:50;9.80;99.90
770;DHT22;368;48.698;9.116;2022-10-23T01:31:29;9.60;99.90
770;DHT22;368;48.698;9.116;2022-10-23T01:34:01;9.50;99.90
770;DHT22;368;48.698;9.116;2022-10-23T01:36:31;9.60;99.90
770;DHT22;368;48.698;9.116;2022-10-23T01:39:02;10.00;99.90
770;DHT22;368;48.698;9.116;2022-10-23T01:41:34;9.90;99.90
770;DHT22;368;48.698;9.116;2022-10-23T01:44:09;9.50;99.90
770;DHT22;368;48.698;9.116;2022-10-23T01:46:38;9.60;99.90
770;DHT22;368;48.698;9.116;2022-10-23T01:49:08;9.30;99.90
770;DHT22;368;48.698;9.116;2022-10-23T01:51:36;9.30;99.90
770;DHT22;368;48.698;9.116;2022-10-23T01:54:07;9.30;99.90
770;DHT22;368;48.698;9.116;2022-10-23T01:56:37;9.30;99.90
770;DHT22;368;48.698;9.116;2022-10-23T01:59:09;9.70;99.90
770;DHT22;368;48.698;9.116;2022-10-23T02:01:41;9.80;99.90
770;DHT22;368;48.698;9.116;2022-10-23T02:04:12;9.80;99.90
770;DHT22;368;48.698;9.116;2022-10-23T02:06:40;9.70;99.90
770;DHT22;368;48.698;9.116;2022-10-23T02:09:07;9.60;99.90
770;DHT22;368;48.698;9.116;2022-10-23T02:11:38;9.40;99.90
770;DHT22;368;48.698;9.116;2022-10-23T02:14:14;9.40;99.90
770;DHT22;368;48.698;9.116;2022-10-23T02:16:46;9.70;99.90
770;DHT22;368;48.698;9.116;2022-10-23T02:19:20;10.10;99.90
770;DHT22;368;48.698;9.116;2022-10-23T02:21:57;10.10;99.90
770;DHT22;368;48.698;9.116;2022-10-23T02:24:30;10.00;99.90
770;DHT22;368;48.698;9.116;2022-10-23T02:27:00;10.10;99.90
770;DHT22;368;48.698;9.116;2022-10-23T02:29:33;10.10;99.90
770;DHT22;368;48.698;9.116;2022-10-23T02:32:01;9.90;99.90
770;DHT22;368;48.698;9.116;2022-10-23T02:34:27;10.20;99.90
770;DHT22;368;48.698;9.116;2022-10-23T02:36:55;10.20;99.90
770;DHT22;368;48.698;9.116;2022-10-23T02:39:23;10.20;99.90
770;DHT22;368;48.698;9.116;2022-10-23T02:41:56;10.10;99.90
770;DHT22;368;48.698;9.116;2022-10-23T02:44:37;10.20;99.90
770;DHT22;368;48.698;9.116;2022-10-23T02:47:14;10.40;99.90
770;DHT22;368;48.698;9.116;2022-10-23T02:49:50;10.20;99.90
770;DHT22;368;48.698;9.116;2022-10-23T02:52:23;10.40;99.90
770;DHT22;368;48.698;9.116;2022-10-23T02:55:03;10.50;99.90
770;DHT22;368;48.698;9.116;2022-10-23T02:57:34;10.40;99.90
770;DHT22;368;48.698;9.116;2022-10-23T03:00:06;10.20;99.90
770;DHT22;368;48.698;9.116;2022-10-23T03:02:37;10.20;99.90
770;DHT22;368;48.698;9.116;2022-10-23T03:05:08;10.00;99.90
770;DHT22;368;48.698;9.116;2022-10-23T03:07:37;10.10;99.90
770;DHT22;368;48.698;9.116;2022-10-23T03:10:06;10.20;99.90
770;DHT22;368;48.698;9.116;2022-10-23T03:12:33;10.10;99.90
770;DHT22;368;48.698;9.116;2022-10-23T03:15:00;10.00;99.90
770;DHT22;368;48.698;9.116;2022-10-23T03:17:28;9.70;99.90
770;DHT22;368;48.698;9.116;2022-10-23T03:19:55;9.60;99.90
770;DHT22;368;48.698;9.116;2022-10-23T03:22:22;9.80;99.90
770;DHT22;368;48.698;9.116;2022-10-23T03:24:48;9.60;99.90
770;DHT22;368;48.698;9.116;2022-10-23T03:27:15;9.70;99.90
770;DHT22;368;48.698;9.116;2022-10-23T03:29:42;9.90;99.90
770;DHT22;368;48.698;9.116;2022-10-23T03:32:09;9.50;99.90
770;DHT22;368;48.698;9.116;2022-10-23T03:34:37;9.50;99.90
770;DHT22;368;48.698;9.116;2022-10-23T03:37:04;9.60;99.90
770;DHT22;368;48.698;9.116;2022-10-23T03:39:31;9.70;99.90
770;DHT22;368;48.698;9.116;2022-10-23T03:41:57;9.90;99.90
770;DHT22;368;48.698;9.116;2022-10-23T03:44:24;9.70;99.90
770;DHT22;368;48.698;9.116;2022-10-23T03:46:51;9.70;99.90
770;DHT22;368;48.698;9.116;2022-10-23T03:49:18;9.70;99.90
770;DHT22;368;48.698;9.116;2022-10-23T03:51:46;9.90;99.90
770;DHT22;368;48.698;9.116;2022-10-23T03:54:18;9.80;99.90
770;DHT22;368;48.698;9.116;2022-10-23T03:56:45;9.60;99.90
770;DHT22;368;48.698;9.116;2022-10-23T03:59:11;10.00;99.90
770;DHT22;368;48.698;9.116;2022-10-23T04:01:38;9.60;99.90
770;DHT22;368;48.698;9.116;2022-10-23T04:04:05;9.80;99.90
770;DHT22;368;48.698;9.116;2022-10-23T04:06:32;9.70;99.90
770;DHT22;368;48.698;9.116;2022-10-23T04:09:00;9.40;99.90
770;DHT22;368;48.698;9.116;2022-10-23T04:11:26;9.70;99.90
770;DHT22;368;48.698;9.116;2022-10-23T04:13:53;9.70;99.90
770;DHT22;368;48.698;9.116;2022-10-23T04:16:20;9.50;99.90
770;DHT22;368;48.698;9.116;2022-10-23T04:18:47;9.50;99.90
770;DHT22;368;48.698;9.116;2022-10-23T04:21:13;9.20;99.90
770;DHT22;368;48.698;9.116;2022-10-23T04:23:41;9.60;99.90
770;DHT22;368;48.698;9.116;2022-10-23T04:26:09;9.80;99.90
770;DHT22;368;48.698;9.116;2022-10-23T04:28:35;9.40;99.90
770;DHT22;368;48.698;9.116;2022-10-23T04:31:02;9.60;99.90
770;DHT22;368;48.698;9.116;2022-10-23T04:33:29;9.50;99.90
770;DHT22;368;48.698;9.116;2022-10-23T04:35:56;9.50;99.90
770;DHT22;368;48.698;9.116;2022-10-23T04:38:22;9.30;99.90
770;DHT22;368;48.698;9.116;2022-10-23T04:40:50;9.40;99.90
770;DHT22;368;48.698;9.116;2022-10-23T04:43:18;9.90;99.90
770;DHT22;368;48.698;9.116;2022-10-23T04:45:45;9.90;99.90
770;DHT22;368;48.698;9.116;2022-10-23T04:48:13;9.70;99.90
770;DHT22;368;48.698;9.116;2022-10-23T04:50:40;9.90;99.90
770;DHT22;368;48.698;9.116;2022-10-23T04:53:08;9.70;99.90
770;DHT22;368;48.698;9.116;2022-10-23T04:55:34;10.10;99.90
770;DHT22;368;48.698;9.116;2022-10-23T04:58:01;10.00;99.90
770;DHT22;368;48.698;9.116;2022-10-23T05:00:29;10.00;99.90
770;DHT22;368;48.698;9.116;2022-10-23T05:02:56;10.10;99.90
770;DHT22;368;48.698;9.116;2022-10-23T05:05:23;9.70;99.90
770;DHT22;368;48.698;9.116;2022-10-23T05:07:49;10.20;99.90
770;DHT22;368;48.698;9.116;2022-10-23T05:10:16;10.00;99.90
770;DHT22;368;48.698;9.116;2022-10-23T05:12:43;9.80;99.90
770;DHT22;368;48.698;9.116;2022-10-23T05:15:10;10.00;99.90
770;DHT22;368;48.698;9.116;2022-10-23T05:17:40;10.10;99.90
770;DHT22;368;48.698;9.116;2022-10-23T05:20:12;9.90;99.90
770;DHT22;368;48.698;9.116;2022-10-23T05:22:43;10.10;99.90
770;DHT22;368;48.698;9.116;2022-10-23T05:25:12;10.00;99.90
770;DHT22;368;48.698;9.116;2022-10-23T05:27:39;9.90;99.90
770;DHT22;368;48.698;9.116;2022-10-23T05:30:06;9.90;99.90
770;DHT22;368;48.698;9.116;2022-10-23T05:32:34;10.20;99.90
770;DHT22;368;48.698;9.116;2022-10-23T05:35:06;10.20;99.90
770;DHT22;368;48.698;9.116;2022-10-23T05:37:35;10.30;99.90
770;DHT22;368;48.698;9.116;2022-10-23T05:40:03;10.20;99.90
770;DHT22;368;48.698;9.116;2022-10-23T05:42:30;10.10;99.90
770;DHT22;368;48.698;9.116;2022-10-23T05:44:56;10.30;99.90
770;DHT22;368;48.698;9.116;2022-10-23T05:47:23;10.10;99.90
770;DHT22;368;48.698;9.116;2022-10-23T05:49:50;10.20;99.90
770;DHT22;368;48.698;9.116;2022-10-23T05:52:18;10.10;99.90
770;DHT22;368;48.698;9.116;2022-10-23T05:54:45;9.90;99.90
770;DHT22;368;48.698;9.116;2022-10-23T05:57:12;10.30;99.90
770;DHT22;368;48.698;9.116;2022-10-23T05:59:39;10.30;99.90
770;DHT22;368;48.698;9.116;2022-10-23T06:02:05;10.00;99.90
770;DHT22;368;48.698;9.116;2022-10-23T06:04:33;10.30;99.90
770;DHT22;368;48.698;9.116;2022-10-23T06:07:00;10.20;99.90
770;DHT22;368;48.698;9.116;2022-10-23T06:09:28;10.20;99.90
770;DHT22;368;48.698;9.116;2022-10-23T06:11:55;10.10;99.90
770;DHT22;368;48.698;9.116;2022-10-23T06:14:22;9.80;99.90
770;DHT22;368;48.698;9.116;2022-10-23T06:16:49;9.90;99.90
770;DHT22;368;48.698;9.116;2022-10-23T06:19:16;10.00;99.90
770;DHT22;368;48.698;9.116;2022-10-23T06:21:42;10.20;99.90
770;DHT22;368;48.698;9.116;2022-10-23T06:24:10;10.00;99.90
770;DHT22;368;48.698;9.116;2022-10-23T06:26:38;10.20;99.90
770;DHT22;368;48.698;9.116;2022-10-23T06:29:05;10.00;99.90
770;DHT22;368;48.698;9.116;2022-10-23T06:31:31;10.10;99.90
770;DHT22;368;48.698;9.116;2022-10-23T06:33:58;9.90;99.90
770;DHT22;368;48.698;9.116;2022-10-23T06:36:25;10.30;99.90
770;DHT22;368;48.698;9.116;2022-10-23T06:38:52;10.10;99.90
770;DHT22;368;48.698;9.116;2022-10-23T06:41:21;10.50;99.90
770;DHT22;368;48.698;9.116;2022-10-23T06:43:50;10.50;99.90
770;DHT22;368;48.698;9.116;2022-10-23T06:46:18;10.40;99.90
770;DHT22;368;48.698;9.116;2022-10-23T06:48:45;10.30;99.90
770;DHT22;368;48.698;9.116;2022-10-23T06:51:13;10.40;99.90
770;DHT22;368;48.698;9.116;2022-10-23T06:53:41;10.50;99.90
770;DHT22;368;48.698;9.116;2022-10-23T06:56:08;10.80;99.90
770;DHT22;368;48.698;9.116;2022-10-23T06:58:36;10.90;99.90
770;DHT22;368;48.698;9.116;2022-10-23T07:01:06;11.20;99.90
770;DHT22;368;48.698;9.116;2022-10-23T07:03:33;11.00;99.90
770;DHT22;368;48.698;9.116;2022-10-23T07:06:01;11.20;99.90
770;DHT22;368;48.698;9.116;2022-10-23T07:08:29;11.30;99.90
770;DHT22;368;48.698;9.116;2022-10-23T07:10:55;11.40;99.90
770;DHT22;368;48.698;9.116;2022-10-23T07:13:22;11.10;99.90
770;DHT22;368;48.698;9.116;2022-10-23T07:15:49;11.20;99.90
770;DHT22;368;48.698;9.116;2022-10-23T07:18:18;11.30;99.90
770;DHT22;368;48.698;9.116;2022-10-23T07:20:44;11.50;99.90
770;DHT22;368;48.698;9.116;2022-10-23T07:23:14;11.30;99.90
770;DHT22;368;48.698;9.116;2022-10-23T07:25:41;11.40;99.90
770;DHT22;368;48.698;9.116;2022-10-23T07:28:08;11.50;99.90
770;DHT22;368;48.698;9.116;2022-10-23T07:30:35;11.80;99.90
770;DHT22;368;48.698;9.116;2022-10-23T07:33:02;12.00;99.90
770;DHT22;368;48.698;9.116;2022-10-23T07:35:30;12.30;99.90
770;DHT22;368;48.698;9.116;2022-10-23T07:37:58;12.10;99.90
770;DHT22;368;48.698;9.116;2022-10-23T07:40:25;12.30;99.90
770;DHT22;368;48.698;9.116;2022-10-23T07:42:52;11.90;99.90
770;DHT22;368;48.698;9.116;2022-10-23T07:45:18;12.30;99.90
770;DHT22;368;48.698;9.116;2022-10-23T07:47:49;12.40;99.90
770;DHT22;368;48.698;9.116;2022-10-23T07:50:16;12.60;99.90
770;DHT22;368;48.698;9.116;2022-10-23T07:52:44;12.70;99.90
770;DHT22;368;48.698;9.116;2022-10-23T07:55:11;13.00;99.90
770;DHT22;368;48.698;9.116;2022-10-23T07:57:38;13.30;99.90
770;DHT22;368;48.698;9.116;2022-10-23T08:00:06;13.30;99.90
770;DHT22;368;48.698;9.116;2022-10-23T08:02:33;13.60;99.90
770;DHT22;368;48.698;9.116;2022-10-23T08:05:00;13.40;99.90
770;DHT22;368;48.698;9.116;2022-10-23T08:07:26;13.50;99.90
770;DHT22;368;48.698;9.116;2022-10-23T08:09:54;13.70;99.90
770;DHT22;368;48.698;9.116;2022-10-23T08:12:21;14.20;99.90
770;DHT22;368;48.698;9.116;2022-10-23T08:14:48;14.50;99.90
770;DHT22;368;48.698;9.116;2022-10-23T08:17:15;14.50;99.90
770;DHT22;368;48.698;9.116;2022-10-23T08:19:42;14.80;99.90
770;DHT22;368;48.698;9.116;2022-10-23T08:22:11;15.00;99.90
770;DHT22;368;48.698;9.116;2022-10-23T08:24:37;15.30;99.90
770;DHT22;368;48.698;9.116;2022-10-23T08:27:06;15.40;99.90
770;DHT22;368;48.698;9.116;2022-10-23T08:29:33;15.60;99.90
770;DHT22;368;48.698;9.116;2022-10-23T08:31:59;15.50;99.90
770;DHT22;368;48.698;9.116;2022-10-23T08:34:26;15.50;99.90
770;DHT22;368;48.698;9.116;2022-10-23T08:36:53;15.70;99.90
770;DHT22;368;48.698;9.116;2022-10-23T08:39:20;15.60;99.90
770;DHT22;368;48.698;9.116;2022-10-23T08:41:49;15.80;99.90
770;DHT22;368;48.698;9.116;2022-10-23T08:44:21;15.70;99.90
770;DHT22;368;48.698;9.116;2022-10-23T08:46:55;15.60;99.90
770;DHT22;368;48.698;9.116;2022-10-23T08:49:33;15.40;99.90
770;DHT22;368;48.698;9.116;2022-10-23T08:52:06;15.30;99.90
770;DHT22;368;48.698;9.116;2022-10-23T08:54:43;15.50;99.90
770;DHT22;368;48.698;9.116;2022-10-23T08:57:14;15.50;99.90
770;DHT22;368;48.698;9.116;2022-10-23T08:59:46;15.20;99.90
770;DHT22;368;48.698;9.116;2022-10-23T09:02:18;15.30;99.90
770;DHT22;368;48.698;9.116;2022-10-23T09:04:48;15.50;99.90
770;DHT22;368;48.698;9.116;2022-10-23T09:07:22;15.80;99.90
770;DHT22;368;48.698;9.116;2022-10-23T09:10:00;16.10;99.90
770;DHT22;368;48.698;9.116;2022-10-23T09:12:30;15.90;99.90
770;DHT22;368;48.698;9.116;2022-10-23T09:15:09;16.70;99.90
770;DHT22;368;48.698;9.116;2022-10-23T09:17:40;16.80;99.90
770;DHT22;368;48.698;9.116;2022-10-23T09:20:17;17.20;99.90
770;DHT22;368;48.698;9.116;2022-10-23T09:22:47;17.50;99.90
770;DHT22;368;48.698;9.116;2022-10-23T09:25:18;18.00;99.90
770;DHT22;368;48.698;9.116;2022-10-23T09:27:46;18.50;99.90
770;DHT22;368;48.698;9.116;2022-10-23T09:30:29;18.80;99.90
770;DHT22;368;48.698;9.116;2022-10-23T09:32:56;19.40;99.90
770;DHT22;368;48.698;9.116;2022-10-23T09:35:25;19.80;99.70
770;DHT22;368;48.698;9.116;2022-10-23T09:37:53;21.10;97.70
770;DHT22;368;48.698;9.116;2022-10-23T09:40:26;22.20;96.90
770;DHT22;368;48.698;9.116;2022-10-23T09:42:57;23.30;92.50
770;DHT22;368;48.698;9.116;2022-10-23T09:45:28;22.90;93.00
770;DHT22;368;48.698;9.116;2022-10-23T09:48:07;23.50;92.60
770;DHT22;368;48.698;9.116;2022-10-23T09:50:35;23.30;92.50
770;DHT22;368;48.698;9.116;2022-10-23T09:53:02;23.50;92.60
770;DHT22;368;48.698;9.116;2022-10-23T09:55:29;23.90;91.60
770;DHT22;368;48.698;9.116;2022-10-23T09:57:56;23.70;91.00
770;DHT22;368;48.698;9.116;2022-10-23T10:00:25;24.40;90.40
770;DHT22;368;48.698;9.116;2022-10-23T10:02:57;25.40;86.70
770;DHT22;368;48.698;9.116;2022-10-23T10:05:26;24.80;88.70
770;DHT22;368;48.698;9.116;2022-10-23T10:07:56;24.10;90.40
770;DHT22;368;48.698;9.116;2022-10-23T10:10:26;24.00;90.30
770;DHT22;368;48.698;9.116;2022-10-23T10:12:57;23.40;90.60
770;DHT22;368;48.698;9.116;2022-10-23T10:15:32;23.50;90.30
770;DHT22;368;48.698;9.116;2022-10-23T10:18:11;23.10;90.80
770;DHT22;368;48.698;9.116;2022-10-23T10:20:52;22.50;92.40
770;DHT22;368;48.698;9.116;2022-10-23T10:23:27;22.00;93.00
770;DHT22;368;48.698;9.116;2022-10-23T10:26:04;22.60;93.20
770;DHT22;368;48.698;9.116;2022-10-23T10:28:47;22.90;92.20
770;DHT22;368;48.698;9.116;2022-10-23T10:31:20;23.60;91.10
770;DHT22;368;48.698;9.116;2022-10-23T10:33:56;24.40;91.00
770;DHT22;368;48.698;9.116;2022-10-23T10:36:38;23.50;90.70
770;DHT22;368;48.698;9.116;2022-10-23T10:39:10;22.60;92.60
770;DHT22;368;48.698;9.116;2022-10-23T10:41:44;23.30;92.40
770;DHT22;368;48.698;9.116;2022-10-23T10:44:33;23.40;91.10
770;DHT22;368;48.698;9.116;2022-10-23T10:47:13;23.50;90.50
770;DHT22;368;48.698;9.116;2022-10-23T10:49:45;23.40;90.10
770;DHT22;368;48.698;9.116;2022-10-23T10:52:18;23.40;88.70
770;DHT22;368;48.698;9.116;2022-10-23T10:54:54;22.80;90.50
770;DHT22;368;48.698;9.116;2022-10-23T10:57:30;22.10;92.30
770;DHT22;368;48.698;9.116;2022-10-23T11:00:02;21.80;91.80
770;DHT22;368;48.698;9.116;2022-10-23T11:02:36;22.30;91.70
770;DHT22;368;48.698;9.116;2022-10-23T11:05:17;22.80;90.30
770;DHT22;368;48.698;9.116;2022-10-23T11:07:53;22.70;90.80
770;DHT22;368;48.698;9.116;2022-10-23T11:10:21;22.20;90.90
770;DHT22;368;48.698;9.116;2022-10-23T11:12:48;21.70;91.30
770;DHT22;368;48.698;9.116;2022-10-23T11:15:18;21.50;91.80
770;DHT22;368;48.698;9.116;2022-10-23T11:17:50;21.50;91.60
770;DHT22;368;48.698;9.116;2022-10-23T11:20:31;21.10;92.70
770;DHT22;368;48.698;9.116;2022-10-23T11:23:14;21.00;93.00
770;DHT22;368;48.698;9.116;2022-10-23T11:26:00;20.90;93.10
770;DHT22;368;48.698;9.116;2022-10-23T11:28:43;20.90;93.60
770;DHT22;368;48.698;9.116;2022-10-23T11:31:20;20.80;94.00
770;DHT22;368;48.698;9.116;2022-10-23T11:36:50;21.00;93.70
770;DHT22;368;48.698;9.116;2022-10-23T11:39:20;21.20;94.60
770;DHT22;368;48.698;9.116;2022-10-23T11:41:52;21.10;94.70
770;DHT22;368;48.698;9.116;2022-10-23T11:44:37;21.30;94.20
770;DHT22;368;48.698;9.116;2022-10-23T11:47:24;21.40;94.20
770;DHT22;368;48.698;9.116;2022-10-23T11:50:22;21.80;92.40
770;DHT22;368;48.698;9.116;2022-10-23T11:52:55;22.10;92.60
770;DHT22;368;48.698;9.116;2022-10-23T11:55:24;22.60;92.30
770;DHT22;368;48.698;9.116;2022-10-23T11:58:20;22.50;92.50
770;DHT22;368;48.698;9.116;2022-10-23T12:01:00;22.50;92.20
770;DHT22;368;48.698;9.116;2022-10-23T12:03:32;22.50;93.80
770;DHT22;368;48.698;9.116;2022-10-23T12:06:04;23.10;92.30
770;DHT22;368;48.698;9.116;2022-10-23T12:08:33;23.00;92.60
770;DHT22;368;48.698;9.116;2022-10-23T12:11:01;22.90;92.70
770;DHT22;368;48.698;9.116;2022-10-23T12:13:43;23.10;91.60
770;DHT22;368;48.698;9.116;2022-10-23T12:16:10;23.90;90.60
770;DHT22;368;48.698;9.116;2022-10-23T12:18:48;23.70;90.70
770;DHT22;368;48.698;9.116;2022-10-23T12:21:19;23.00;91.60
770;DHT22;368;48.698;9.116;2022-10-23T12:24:04;22.70;92.60
770;DHT22;368;48.698;9.116;2022-10-23T12:26:51;22.50;93.10
770;DHT22;368;48.698;9.116;2022-10-23T12:29:33;22.80;92.50
770;DHT22;368;48.698;9.116;2022-10-23T12:32:16;22.80;91.80
770;DHT22;368;48.698;9.116;2022-10-23T12:34:58;22.90;92.10
770;DHT22;368;48.698;9.116;2022-10-23T12:37:50;23.40;91.70
770;DHT22;368;48.698;9.116;2022-10-23T12:40:21;23.30;92.40
770;DHT22;368;48.698;9.116;2022-10-23T12:42:55;23.20;92.40
770;DHT22;368;48.698;9.116;2022-10-23T12:45:25;23.80;92.50
770;DHT22;368;48.698;9.116;2022-10-23T12:47:52;24.90;91.50
770;DHT22;368;48.698;9.116;2022-10-23T12:50:22;25.70;91.00
770;DHT22;368;48.698;9.116;2022-10-23T12:52:58;26.70;88.80
770;DHT22;368;48.698;9.116;2022-10-23T12:55:26;27.60;84.30
770;DHT22;368;48.698;9.116;2022-10-23T12:57:55;28.10;82.20
770;DHT22;368;48.698;9.116;2022-10-23T13:00:23;28.90;80.10
770;DHT22;368;48.698;9.116;2022-10-23T13:02:57;29.50;75.40
770;DHT22;368;48.698;9.116;2022-10-23T13:05:24;29.50;76.60
770;DHT22;368;48.698;9.116;2022-10-23T13:07:52;29.70;73.30
770;DHT22;368;48.698;9.116;2022-10-23T13:10:22;29.80;73.10
770;DHT22;368;48.698;9.116;2022-10-23T13:12:53;29.80;72.40
770;DHT22;368;48.698;9.116;2022-10-23T13:15:22;30.90;68.60
770;DHT22;368;48.698;9.116;2022-10-23T13:18:00;30.50;69.90
770;DHT22;368;48.698;9.116;2022-10-23T13:20:29;30.20;71.00
770;DHT22;368;48.698;9.116;2022-10-23T13:22:59;30.90;67.70
770;DHT22;368;48.698;9.116;2022-10-23T13:25:30;29.70;69.60
770;DHT22;368;48.698;9.116;2022-10-23T13:28:25;29.30;70.90
770;DHT22;368;48.698;9.116;2022-10-23T13:31:02;27.50;75.30
770;DHT22;368;48.698;9.116;2022-10-23T13:33:37;26.30;81.20
770;DHT22;368;48.698;9.116;2022-10-23T13:36:19;26.10;82.10
770;DHT22;368;48.698;9.116;2022-10-23T13:38:59;28.10;76.90
770;DHT22;368;48.698;9.116;2022-10-23T13:41:29;27.30;77.50
770;DHT22;368;48.698;9.116;2022-10-23T13:43:56;26.10;80.80
770;DHT22;368;48.698;9.116;2022-10-23T13:46:23;25.00;83.80
770;DHT22;368;48.698;9.116;2022-10-23T13:48:50;24.20;86.90
770;DHT22;368;48.698;9.116;2022-10-23T13:51:19;23.40;90.30
770;DHT22;368;48.698;9.116;2022-10-23T13:53:47;22.90;91.50
770;DHT22;368;48.698;9.116;2022-10-23T13:56:15;22.40;92.70
770;DHT22;368;48.698;9.116;2022-10-23T13:58:44;22.20;93.30
770;DHT22;368;48.698;9.116;2022-10-23T14:01:18;22.10;93.00
770;DHT22;368;48.698;9.116;2022-10-23T14:03:46;21.90;94.50
770;DHT22;368;48.698;9.116;2022-10-23T14:06:13;21.70;96.40
770;DHT22;368;48.698;9.116;2022-10-23T14:08:39;21.60;95.60
770;DHT22;368;48.698;9.116;2022-10-23T14:11:07;21.30;98.20
770;DHT22;368;48.698;9.116;2022-10-23T14:13:34;21.10;97.80
770;DHT22;368;48.698;9.116;2022-10-23T14:16:02;21.00;99.20
770;DHT22;368;48.698;9.116;2022-10-23T14:18:29;20.70;99.90
770;DHT22;368;48.698;9.116;2022-10-23T14:20:58;20.50;99.90
770;DHT22;368;48.698;9.116;2022-10-23T14:23:25;20.30;99.90
770;DHT22;368;48.698;9.116;2022-10-23T14:25:52;20.30;99.90
770;DHT22;368;48.698;9.116;2022-10-23T14:28:19;20.40;99.90
770;DHT22;368;48.698;9.116;2022-10-23T14:30:46;20.40;99.90
770;DHT22;368;48.698;9.116;2022-10-23T14:33:14;20.40;99.90
770;DHT22;368;48.698;9.116;2022-10-23T14:35:41;20.20;99.90
770;DHT22;368;48.698;9.116;2022-10-23T14:38:08;20.10;99.90
770;DHT22;368;48.698;9.116;2022-10-23T14:40:36;19.90;99.90
770;DHT22;368;48.698;9.116;2022-10-23T14:43:03;20.00;99.90
770;DHT22;368;48.698;9.116;2022-10-23T14:45:30;19.70;99.90
770;DHT22;368;48.698;9.116;2022-10-23T14:47:57;19.50;99.90
770;DHT22;368;48.698;9.116;2022-10-23T14:50:30;19.60;99.90
770;DHT22;368;48.698;9.116;2022-10-23T14:52:57;19.60;99.90
770;DHT22;368;48.698;9.116;2022-10-23T14:55:24;19.60;99.90
770;DHT22;368;48.698;9.116;2022-10-23T14:57:53;19.60;99.90
770;DHT22;368;48.698;9.116;2022-10-23T15:00:21;19.90;99.90
770;DHT22;368;48.698;9.116;2022-10-23T15:02:48;20.30;99.90
770;DHT22;368;48.698;9.116;2022-10-23T15:05:15;20.70;99.90
770;DHT22;368;48.698;9.116;2022-10-23T15:07:44;21.50;99.90
770;DHT22;368;48.698;9.116;2022-10-23T15:10:10;22.20;99.90
770;DHT22;368;48.698;9.116;2022-10-23T15:12:38;22.20;99.90
770;DHT22;368;48.698;9.116;2022-10-23T15:15:06;22.10;99.90
770;DHT22;368;48.698;9.116;2022-10-23T15:17:36;21.80;99.90
770;DHT22;368;48.698;9.116;2022-10-23T15:20:06;21.80;99.90
770;DHT22;368;48.698;9.116;2022-10-23T15:22:33;21.80;99.90
770;DHT22;368;48.698;9.116;2022-10-23T15:25:01;21.80;99.90
770;DHT22;368;48.698;9.116;2022-10-23T15:27:28;21.50;99.90
770;DHT22;368;48.698;9.116;2022-10-23T15:29:55;21.30;99.90
770;DHT22;368;48.698;9.116;2022-10-23T15:32:21;20.80;99.90
770;DHT22;368;48.698;9.116;2022-10-23T15:34:48;20.30;99.90
770;DHT22;368;48.698;9.116;2022-10-23T15:37:16;20.10;99.90
770;DHT22;368;48.698;9.116;2022-10-23T15:39:43;19.90;99.90
770;DHT22;368;48.698;9.116;2022-10-23T15:42:12;19.80;99.90
770;DHT22;368;48.698;9.116;2022-10-23T15:44:40;19.40;99.90
770;DHT22;368;48.698;9.116;2022-10-23T15:47:06;19.30;99.90
770;DHT22;368;48.698;9.116;2022-10-23T15:49:33;19.20;99.90
770;DHT22;368;48.698;9.116;2022-10-23T15:52:03;19.20;99.90
770;DHT22;368;48.698;9.116;2022-10-23T15:54:30;18.90;99.90
770;DHT22;368;48.698;9.116;2022-10-23T15:56:57;18.60;99.90
770;DHT22;368;48.698;9.116;2022-10-23T15:59:26;18.40;99.90
770;DHT22;368;48.698;9.116;2022-10-23T16:01:55;18.30;99.90
770;DHT22;368;48.698;9.116;2022-10-23T16:04:22;18.20;99.90
770;DHT22;368;48.698;9.116;2022-10-23T16:06:49;18.40;99.90
770;DHT22;368;48.698;9.116;2022-10-23T16:09:16;18.20;99.90
770;DHT22;368;48.698;9.116;2022-10-23T16:11:43;18.00;99.90
770;DHT22;368;48.698;9.116;2022-10-23T16:14:12;17.80;99.90
770;DHT22;368;48.698;9.116;2022-10-23T16:16:40;17.70;99.90
770;DHT22;368;48.698;9.116;2022-10-23T16:19:09;17.40;99.90
770;DHT22;368;48.698;9.116;2022-10-23T16:21:36;17.30;99.90
770;DHT22;368;48.698;9.116;2022-10-23T16:24:05;17.10;99.90
770;DHT22;368;48.698;9.116;2022-10-23T16:26:32;17.00;99.90
770;DHT22;368;48.698;9.116;2022-10-23T16:29:02;17.00;99.90
770;DHT22;368;48.698;9.116;2022-10-23T16:31:29;16.80;99.90
770;DHT22;368;48.698;9.116;2022-10-23T16:33:59;16.80;99.90
770;DHT22;368;48.698;9.116;2022-10-23T16:36:26;16.70;99.90
770;DHT22;368;48.698;9.116;2022-10-23T16:38:53;16.80;99.90
770;DHT22;368;48.698;9.116;2022-10-23T16:41:20;16.80;99.90
770;DHT22;368;48.698;9.116;2022-10-23T16:43:47;16.80;99.90
770;DHT22;368;48.698;9.116;2022-10-23T16:46:15;16.90;99.90
770;DHT22;368;48.698;9.116;2022-10-23T16:48:43;16.90;99.90
770;DHT22;368;48.698;9.116;2022-10-23T16:51:13;16.40;99.90
770;DHT22;368;48.698;9.116;2022-10-23T16:53:40;16.80;99.90
770;DHT22;368;48.698;9.116;2022-10-23T16:56:08;16.80;99.90
770;DHT22;368;48.698;9.116;2022-10-23T16:58:36;16.90;99.90
770;DHT22;368;48.698;9.116;2022-10-23T17:01:07;16.90;99.90
770;DHT22;368;48.698;9.116;2022-10-23T17:03:35;16.70;99.90
770;DHT22;368;48.698;9.116;2022-10-23T17:06:04;16.80;99.90